createdAt,value
2022-08-24T00:02:01.503Z,57.01
2022-08-24T00:04:28.434Z,57.08
2022-08-24T00:06:58.725Z,57.15
2022-08-24T00:09:25.210Z,57.22
2022-08-24T00:11:51.732Z,57.49
2022-08-24T00:14:18.686Z,58.02
2022-08-24T00:16:45.694Z,57.47
2022-08-24T00:19:12.668Z,57.93
2022-08-24T00:21:39.267Z,58.00
2022-08-24T00:24:06.396Z,58.12
2022-08-24T00:26:32.916Z,58.92
2022-08-24T00:29:01.393Z,58.75
2022-08-24T00:31:30.769Z,59.21
2022-08-24T00:33:57.304Z,58.86
2022-08-24T00:36:24.766Z,59.45
2022-08-24T00:38:51.464Z,58.97
2022-08-24T00:41:18.227Z,59.25
2022-08-24T00:43:59.859Z,59.69
2022-08-24T00:46:43.267Z,59.81
2022-08-24T00:49:38.543Z,60.35
2022-08-24T00:52:06.777Z,60.76
2022-08-24T00:54:42.811Z,60.70
2022-08-24T00:57:14.345Z,61.42
2022-08-24T00:59:49.170Z,61.91
2022-08-24T01:02:24.760Z,62.14
2022-08-24T01:04:56.058Z,62.82
2022-08-24T01:07:25.066Z,63.34
2022-08-24T01:09:53.018Z,63.33
2022-08-24T01:12:19.878Z,63.38
2022-08-24T01:14:46.747Z,64.45
2022-08-24T01:17:36.217Z,64.89
2022-08-24T01:20:07.220Z,65.80
2022-08-24T01:22:50.201Z,65.85
2022-08-24T01:25:17.212Z,65.50
2022-08-24T01:27:44.233Z,65.59
2022-08-24T01:30:13.861Z,65.29
2022-08-24T01:32:41.527Z,65.15
2022-08-24T01:35:08.943Z,65.82
2022-08-24T01:37:35.648Z,66.37
2022-08-24T01:40:06.538Z,66.56
2022-08-24T01:42:34.882Z,66.85
2022-08-24T01:45:01.968Z,66.52
2022-08-24T01:47:29.051Z,67.56
2022-08-24T01:49:55.665Z,67.89
2022-08-24T01:52:25.305Z,67.33
2022-08-24T01:54:52.438Z,67.33
2022-08-24T01:57:19.872Z,67.66
2022-08-24T01:59:49.639Z,67.55
2022-08-24T02:02:19.773Z,67.46
2022-08-24T02:04:46.488Z,67.62
2022-08-24T02:07:13.963Z,68.34
2022-08-24T02:09:40.461Z,68.53
2022-08-24T02:12:07.488Z,68.84
2022-08-24T02:14:34.527Z,69.02
2022-08-24T02:17:04.458Z,68.54
2022-08-24T02:19:31.096Z,69.06
2022-08-24T02:21:57.592Z,69.80
2022-08-24T02:24:24.100Z,70.05
2022-08-24T02:26:50.742Z,70.36
2022-08-24T02:29:17.635Z,70.65
2022-08-24T02:31:44.130Z,70.94
2022-08-24T02:34:10.792Z,71.92
2022-08-24T02:36:38.359Z,72.61
2022-08-24T02:39:06.090Z,72.62
2022-08-24T02:41:32.613Z,73.08
2022-08-24T02:43:59.993Z,73.69
2022-08-24T02:46:28.500Z,74.31
2022-08-24T02:49:03.605Z,74.27
2022-08-24T02:51:45.002Z,74.35
2022-08-24T02:54:13.621Z,74.54
2022-08-24T02:56:40.161Z,74.81
2022-08-24T02:59:06.880Z,75.25
2022-08-24T03:01:33.451Z,75.56
2022-08-24T03:03:59.988Z,75.94
2022-08-24T03:06:26.501Z,75.92
2022-08-24T03:08:56.170Z,75.81
2022-08-24T03:11:27.692Z,76.28
2022-08-24T03:13:59.116Z,76.08
2022-08-24T03:16:26.892Z,76.63
2022-08-24T03:18:53.495Z,76.89
2022-08-24T03:21:20.873Z,76.88
2022-08-24T03:23:47.644Z,77.31
2022-08-24T03:26:14.744Z,77.60
2022-08-24T03:28:41.820Z,77.92
2022-08-24T03:31:11.286Z,78.09
2022-08-24T03:33:38.056Z,78.20
2022-08-24T03:36:04.567Z,78.48
2022-08-24T03:38:31.055Z,78.96
2022-08-24T03:40:57.667Z,79.37
2022-08-24T03:43:42.635Z,80.05
2022-08-24T03:46:11.916Z,79.58
2022-08-24T03:48:44.232Z,79.28
2022-08-24T03:51:12.571Z,79.48
2022-08-24T03:53:42.394Z,80.24
2022-08-24T03:56:10.958Z,80.32
2022-08-24T03:58:39.514Z,80.71
2022-08-24T04:01:06.233Z,80.73
2022-08-24T04:03:36.019Z,80.93
2022-08-24T04:06:02.604Z,81.35
2022-08-24T04:08:30.076Z,81.38
2022-08-24T04:10:58.086Z,82.06
2022-08-24T04:13:25.144Z,82.09
2022-08-24T04:15:52.931Z,81.77
2022-08-24T04:18:20.179Z,81.85
2022-08-24T04:20:46.686Z,82.02
2022-08-24T04:23:13.417Z,82.30
2022-08-24T04:25:46.495Z,82.58
2022-08-24T04:28:15.088Z,82.95
2022-08-24T04:30:42.981Z,82.67
2022-08-24T04:33:11.186Z,82.92
2022-08-24T04:35:42.904Z,82.99
2022-08-24T04:38:09.892Z,83.54
2022-08-24T04:40:39.486Z,83.87
2022-08-24T04:43:06.146Z,84.12
2022-08-24T04:45:34.158Z,84.13
2022-08-24T04:48:00.685Z,83.90
2022-08-24T04:50:27.264Z,84.37
2022-08-24T04:52:53.755Z,84.10
2022-08-24T04:55:20.263Z,83.81
2022-08-24T04:57:46.788Z,84.14
2022-08-24T05:00:13.612Z,84.17
2022-08-24T05:02:44.691Z,84.87
2022-08-24T05:05:11.881Z,84.55
2022-08-24T05:07:38.800Z,84.72
2022-08-24T05:10:07.428Z,84.71
2022-08-24T05:12:35.438Z,85.21
2022-08-24T05:15:02.034Z,84.69
2022-08-24T05:17:28.562Z,84.36
2022-08-24T05:19:55.127Z,84.37
2022-08-24T05:22:22.271Z,84.26
2022-08-24T05:24:48.781Z,84.66
2022-08-24T05:27:15.925Z,84.19
2022-08-24T05:29:45.965Z,83.86
2022-08-24T05:32:12.540Z,84.07
2022-08-24T05:34:39.223Z,83.61
2022-08-24T05:37:05.757Z,82.62
2022-08-24T05:39:32.739Z,81.86
2022-08-24T05:42:00.876Z,79.95
2022-08-24T05:44:31.061Z,79.04
2022-08-24T05:46:58.720Z,78.11
2022-08-24T05:49:26.130Z,77.06
2022-08-24T05:51:52.891Z,75.75
2022-08-24T05:54:19.922Z,74.52
2022-08-24T05:56:46.585Z,73.74
2022-08-24T05:59:13.967Z,73.16
2022-08-24T06:01:45.150Z,72.25
2022-08-24T06:04:12.755Z,72.00
2022-08-24T06:06:39.273Z,71.69
2022-08-24T06:09:06.013Z,72.38
2022-08-24T06:11:37.836Z,72.18
2022-08-24T06:14:09.426Z,72.21
2022-08-24T06:16:40.907Z,71.11
2022-08-24T06:19:09.100Z,70.32
2022-08-24T06:21:35.667Z,69.65
2022-08-24T06:24:02.169Z,69.50
2022-08-24T06:26:49.918Z,69.05
2022-08-24T06:29:17.897Z,68.91
2022-08-24T06:31:46.469Z,68.53
2022-08-24T06:34:14.615Z,68.64
2022-08-24T06:36:41.438Z,68.70
2022-08-24T06:39:10.004Z,68.46
2022-08-24T06:41:38.227Z,67.74
2022-08-24T06:44:05.884Z,67.98
2022-08-24T06:46:33.114Z,68.02
2022-08-24T06:48:59.953Z,68.14
2022-08-24T06:51:26.440Z,68.39
2022-08-24T06:53:55.670Z,68.22
2022-08-24T06:56:22.484Z,68.39
2022-08-24T06:58:48.978Z,68.18
2022-08-24T07:01:18.225Z,68.51
2022-08-24T07:03:45.019Z,68.59
2022-08-24T07:06:14.095Z,68.56
2022-08-24T07:08:42.233Z,68.93
2022-08-24T07:11:09.702Z,68.65
2022-08-24T07:13:36.238Z,67.42
2022-08-24T07:16:03.443Z,67.45
2022-08-24T07:18:30.018Z,66.40
2022-08-24T07:20:56.520Z,66.05
2022-08-24T07:23:23.185Z,66.09
2022-08-24T07:28:47.671Z,65.21
2022-08-24T07:31:14.969Z,65.19
2022-08-24T07:33:41.800Z,64.67
2022-08-24T07:36:08.447Z,63.86
2022-08-24T07:38:35.136Z,63.76
2022-08-24T07:41:33.249Z,63.79
2022-08-24T07:43:48.694Z,63.35
2022-08-24T07:46:15.351Z,63.52
2022-08-24T07:48:41.885Z,63.37
2022-08-24T07:51:09.574Z,62.31
2022-08-24T07:53:52.626Z,62.45
2022-08-24T07:56:20.330Z,62.25
2022-08-24T07:58:47.391Z,62.22
2022-08-24T08:01:13.947Z,61.91
2022-08-24T08:03:41.634Z,62.30
2022-08-24T08:06:16.155Z,61.42
2022-08-24T08:08:43.050Z,61.06
2022-08-24T08:11:10.247Z,61.43
2022-08-24T08:13:37.189Z,61.25
2022-08-24T08:16:07.898Z,60.60
2022-08-24T08:18:35.229Z,61.43
2022-08-24T08:21:26.207Z,61.54
2022-08-24T08:24:11.331Z,61.30
2022-08-24T08:26:38.664Z,61.07
2022-08-24T08:29:05.225Z,61.73
2022-08-24T08:31:31.773Z,61.02
2022-08-24T08:34:01.009Z,59.53
2022-08-24T08:36:27.563Z,59.98
2022-08-24T08:38:54.188Z,60.09
2022-08-24T08:41:58.268Z,59.41
2022-08-24T08:44:49.252Z,58.89
2022-08-24T08:47:44.909Z,59.34
2022-08-24T08:50:48.635Z,58.41
2022-08-24T08:53:39.965Z,57.97
2022-08-24T08:56:30.256Z,58.29
2022-08-24T08:59:50.116Z,57.69
2022-08-24T09:02:43.816Z,57.74
2022-08-24T09:05:32.163Z,56.94
2022-08-24T09:08:19.855Z,56.37
2022-08-24T09:11:06.037Z,55.99
2022-08-24T09:13:48.526Z,56.00
2022-08-24T09:16:29.354Z,55.99
2022-08-24T09:19:10.735Z,55.50
2022-08-24T09:22:01.181Z,54.71
2022-08-24T09:24:53.256Z,54.45
2022-08-24T09:27:32.581Z,54.35
2022-08-24T09:30:10.283Z,54.02
2022-08-24T09:33:10.429Z,53.49
2022-08-24T09:35:58.816Z,52.82
2022-08-24T09:39:00.022Z,52.75
2022-08-24T09:42:07.313Z,52.32
2022-08-24T09:44:55.319Z,52.45
2022-08-24T09:47:45.598Z,52.23
2022-08-24T09:50:21.158Z,51.36
2022-08-24T09:53:26.181Z,51.79
2022-08-24T09:56:02.209Z,51.11
2022-08-24T09:58:41.037Z,50.36
2022-08-24T10:01:25.900Z,50.50
2022-08-24T10:04:14.884Z,50.50
2022-08-24T10:07:06.961Z,49.04
2022-08-24T10:09:54.207Z,49.31
2022-08-24T10:12:56.221Z,49.08
2022-08-24T10:15:38.589Z,47.64
2022-08-24T10:18:21.702Z,47.04
2022-08-24T10:21:19.318Z,49.12
2022-08-24T10:24:13.335Z,47.89
2022-08-24T10:26:47.259Z,46.78
2022-08-24T10:29:28.403Z,45.21
2022-08-24T10:32:26.098Z,44.83
2022-08-24T10:35:05.843Z,45.70
2022-08-24T10:37:44.291Z,44.69
2022-08-24T10:40:32.199Z,44.58
2022-08-24T10:43:35.825Z,44.88
2022-08-24T10:46:36.399Z,42.65
2022-08-24T10:49:22.207Z,42.82
2022-08-24T10:52:06.987Z,43.91
2022-08-24T10:54:34.700Z,44.93
2022-08-24T10:57:12.299Z,44.12
2022-08-24T11:00:22.894Z,42.99
2022-08-24T11:02:50.254Z,41.08
2022-08-24T11:05:29.546Z,42.51
2022-08-24T11:08:05.240Z,41.09
2022-08-24T11:10:39.918Z,42.53
2022-08-24T11:13:17.887Z,42.02
2022-08-24T11:15:49.537Z,40.70
2022-08-24T11:18:16.957Z,41.90
2022-08-24T11:20:46.914Z,41.66
2022-08-24T11:23:20.451Z,42.32
2022-08-24T11:25:59.560Z,41.90
2022-08-24T11:28:33.690Z,41.83
2022-08-24T11:31:00.712Z,41.84
2022-08-24T11:33:44.719Z,42.44
2022-08-24T11:36:21.123Z,42.12
2022-08-24T11:38:47.983Z,42.12
2022-08-24T11:41:23.286Z,41.19
2022-08-24T11:44:17.604Z,40.14
2022-08-24T11:47:04.196Z,40.78
2022-08-24T11:49:48.137Z,40.32
2022-08-24T11:52:59.899Z,39.80
2022-08-24T11:55:41.678Z,38.78
2022-08-24T11:58:47.952Z,38.89
2022-08-24T12:01:27.723Z,40.22
2022-08-24T12:04:14.151Z,39.57
2022-08-24T12:07:02.532Z,38.78
2022-08-24T12:10:08.524Z,38.92
2022-08-24T12:12:53.138Z,38.70
2022-08-24T12:16:00.540Z,38.47
2022-08-24T12:18:48.228Z,38.14
2022-08-24T12:21:22.070Z,38.70
2022-08-24T12:23:57.397Z,38.30
2022-08-24T12:26:44.516Z,37.88
2022-08-24T12:29:28.852Z,38.46
2022-08-24T12:32:02.258Z,38.71
2022-08-24T12:34:57.948Z,38.42
2022-08-24T12:37:32.354Z,38.13
2022-08-24T12:40:07.302Z,38.54
2022-08-24T12:42:41.136Z,38.42
2022-08-24T12:45:14.118Z,38.98
2022-08-24T12:48:13.066Z,38.51
2022-08-24T12:50:51.722Z,38.47
2022-08-24T12:53:33.185Z,38.56
2022-08-24T12:56:15.377Z,38.64
2022-08-24T12:58:59.111Z,39.19
2022-08-24T13:01:29.781Z,38.47
2022-08-24T13:04:38.499Z,38.40
2022-08-24T13:07:11.544Z,38.75
2022-08-24T13:09:58.237Z,39.95
2022-08-24T13:12:30.488Z,40.11
2022-08-24T13:15:22.734Z,39.98
2022-08-24T13:17:51.610Z,41.18
2022-08-24T13:20:27.343Z,42.54
2022-08-24T13:23:04.513Z,42.88
2022-08-24T13:25:54.653Z,42.76
2022-08-24T13:28:21.166Z,44.17
2022-08-24T13:30:56.385Z,45.66
2022-08-24T13:33:41.222Z,46.74
2022-08-24T13:36:28.694Z,47.67
2022-08-24T13:39:07.072Z,45.92
2022-08-24T13:42:11.961Z,44.89
2022-08-24T13:45:35.418Z,46.48
2022-08-24T13:48:07.529Z,45.73
2022-08-24T13:50:40.157Z,46.59
2022-08-24T13:53:32.711Z,46.88
2022-08-24T13:56:33.221Z,47.25
2022-08-24T13:59:06.781Z,47.45
2022-08-24T14:01:59.517Z,44.91
2022-08-24T14:04:26.139Z,46.55
2022-08-24T14:07:17.956Z,47.05
2022-08-24T14:10:02.510Z,46.74
2022-08-24T14:12:34.948Z,46.86
2022-08-24T14:15:30.133Z,47.67
2022-08-24T14:18:14.678Z,48.45
2022-08-24T14:21:09.057Z,46.33
2022-08-24T14:24:00.467Z,46.53
2022-08-24T14:26:40.654Z,46.73
2022-08-24T14:29:19.239Z,45.93
2022-08-24T14:32:00.066Z,45.62
2022-08-24T14:34:48.654Z,47.57
2022-08-24T14:37:16.355Z,47.24
2022-08-24T14:39:51.558Z,48.03
2022-08-24T14:42:21.363Z,46.29
2022-08-24T14:44:51.960Z,45.91
2022-08-24T14:47:38.315Z,45.59
2022-08-24T14:50:17.263Z,46.00
2022-08-24T14:53:01.033Z,47.12
2022-08-24T14:55:56.945Z,49.35
2022-08-24T14:58:43.363Z,50.11
2022-08-24T15:01:09.781Z,49.60
2022-08-24T15:03:51.956Z,50.14
2022-08-24T15:06:27.221Z,50.12
2022-08-24T15:09:25.172Z,49.98
2022-08-24T15:11:55.320Z,49.98
2022-08-24T15:14:33.673Z,50.61
2022-08-24T15:17:10.836Z,50.44
2022-08-24T15:20:01.713Z,50.87
2022-08-24T15:22:44.012Z,51.50
2022-08-24T15:25:15.818Z,50.96
2022-08-24T15:27:48.598Z,51.05
2022-08-24T15:30:23.968Z,50.37
2022-08-24T15:32:55.423Z,49.31
2022-08-24T15:35:25.791Z,49.41
2022-08-24T15:37:52.795Z,50.71
2022-08-24T15:40:29.588Z,50.94
2022-08-24T15:43:04.106Z,50.94
2022-08-24T15:45:31.708Z,51.29
2022-08-24T15:47:59.745Z,51.73
2022-08-24T15:50:29.292Z,51.80
2022-08-24T15:53:01.704Z,52.18
2022-08-24T15:55:28.116Z,51.99
2022-08-24T15:57:56.164Z,52.67
2022-08-24T16:00:44.731Z,53.24
2022-08-24T16:03:27.563Z,53.01
2022-08-24T16:05:56.371Z,53.10
2022-08-24T16:08:23.336Z,52.90
2022-08-24T16:10:55.562Z,52.46
2022-08-24T16:13:32.107Z,52.89
2022-08-24T16:16:12.063Z,53.71
2022-08-24T16:18:41.375Z,53.73
2022-08-24T16:21:24.884Z,53.41
2022-08-24T16:23:57.224Z,54.22
2022-08-24T16:26:28.828Z,54.14
2022-08-24T16:28:56.411Z,54.83
2022-08-24T16:31:46.860Z,53.97
2022-08-24T16:34:29.100Z,54.48
2022-08-24T16:36:56.107Z,55.14
2022-08-24T16:39:23.032Z,54.91
2022-08-24T16:41:51.915Z,55.91
2022-08-24T16:44:18.495Z,55.39
2022-08-24T16:46:48.035Z,55.39
2022-08-24T16:49:14.852Z,56.09
2022-08-24T16:51:45.341Z,56.43
2022-08-24T16:54:12.030Z,57.18
2022-08-24T16:56:38.542Z,56.80
2022-08-24T16:59:06.839Z,57.12
2022-08-24T17:01:33.408Z,57.41
2022-08-24T17:03:59.974Z,57.58
2022-08-24T17:06:26.482Z,57.80
2022-08-24T17:08:53.578Z,58.34
2022-08-24T17:11:20.153Z,58.60
2022-08-24T17:13:50.913Z,58.75
2022-08-24T17:16:18.942Z,59.14
2022-08-24T17:18:45.606Z,59.29
2022-08-24T17:21:12.129Z,59.31
2022-08-24T17:23:39.323Z,59.72
2022-08-24T17:26:19.243Z,60.16
2022-08-24T17:28:47.577Z,60.90
2022-08-24T17:31:14.407Z,61.47
2022-08-24T17:33:42.099Z,62.13
2022-08-24T17:36:15.239Z,62.34
2022-08-24T17:38:51.699Z,62.49
2022-08-24T17:41:21.283Z,63.34
2022-08-24T17:43:47.791Z,64.11
2022-08-24T17:46:14.847Z,64.68
2022-08-24T17:48:44.128Z,65.25
2022-08-24T17:51:11.207Z,65.36
2022-08-24T17:53:37.708Z,66.98
2022-08-24T17:56:06.515Z,67.05
2022-08-24T17:58:53.147Z,67.61
2022-08-24T18:01:19.867Z,68.07
2022-08-24T18:03:46.633Z,68.82
2022-08-24T18:06:13.585Z,69.09
2022-08-24T18:08:40.156Z,69.88
2022-08-24T18:11:06.664Z,70.12
2022-08-24T18:13:33.656Z,70.56
2022-08-24T18:16:00.323Z,71.19
2022-08-24T18:18:26.854Z,71.35
2022-08-24T18:20:53.815Z,71.13
2022-08-24T18:23:21.244Z,72.55
2022-08-24T18:25:51.494Z,72.61
2022-08-24T18:28:21.935Z,73.66
2022-08-24T18:30:50.402Z,73.68
2022-08-24T18:33:17.429Z,74.35
2022-08-24T18:35:45.593Z,74.44
2022-08-24T18:38:12.462Z,75.08
2022-08-24T18:40:40.623Z,75.34
2022-08-24T18:43:19.590Z,75.85
2022-08-24T18:45:46.214Z,76.19
2022-08-24T18:48:12.767Z,76.10
2022-08-24T18:50:42.152Z,76.73
2022-08-24T18:53:09.164Z,76.93
2022-08-24T18:55:37.630Z,77.00
2022-08-24T18:58:05.241Z,77.18
2022-08-24T19:00:31.850Z,77.60
2022-08-24T19:03:02.122Z,77.84
2022-08-24T19:05:28.960Z,77.83
2022-08-24T19:07:55.558Z,78.19
2022-08-24T19:10:25.100Z,78.55
2022-08-24T19:13:02.053Z,78.67
2022-08-24T19:15:38.946Z,78.73
2022-08-24T19:18:11.050Z,78.76
2022-08-24T19:20:47.993Z,79.24
2022-08-24T19:23:28.027Z,79.30
2022-08-24T19:25:54.832Z,79.05
2022-08-24T19:28:22.530Z,79.48
2022-08-24T19:30:49.552Z,80.07
2022-08-24T19:33:21.056Z,80.55
2022-08-24T19:36:07.455Z,80.84
2022-08-24T19:38:34.427Z,81.27
2022-08-24T19:41:02.500Z,81.08
2022-08-24T19:44:00.256Z,81.23
2022-08-24T19:46:27.451Z,80.89
2022-08-24T19:48:53.990Z,81.09
2022-08-24T19:51:20.490Z,81.14
2022-08-24T19:53:47.080Z,81.26
2022-08-24T19:56:13.599Z,81.44
2022-08-24T19:58:47.111Z,81.45
2022-08-24T20:01:18.464Z,81.41
2022-08-24T20:03:45.058Z,81.12
2022-08-24T20:06:12.526Z,81.28
2022-08-24T20:08:40.843Z,81.65
2022-08-24T20:11:08.227Z,81.27
2022-08-24T20:13:35.094Z,81.69
2022-08-24T20:16:05.384Z,82.06
2022-08-24T20:18:34.729Z,81.94
2022-08-24T20:21:01.999Z,82.25
2022-08-24T20:23:29.364Z,82.21
2022-08-24T20:25:57.661Z,83.01
2022-08-24T20:28:29.753Z,82.84
2022-08-24T20:30:57.505Z,82.69
2022-08-24T20:33:24.858Z,82.89
2022-08-24T20:35:51.460Z,82.73
2022-08-24T20:38:19.780Z,83.15
2022-08-24T20:40:46.855Z,83.24
2022-08-24T20:43:13.978Z,83.41
2022-08-24T20:45:41.613Z,84.05
2022-08-24T20:48:11.901Z,83.88
2022-08-24T20:50:38.997Z,84.13
2022-08-24T20:53:06.221Z,84.81
2022-08-24T20:55:32.850Z,85.11
2022-08-24T20:58:01.526Z,85.42
2022-08-24T21:00:28.172Z,85.71
2022-08-24T21:02:55.047Z,85.65
2022-08-24T21:05:22.115Z,85.38
2022-08-24T21:07:49.756Z,85.88
2022-08-24T21:10:21.324Z,86.07
2022-08-24T21:12:51.822Z,86.94
2022-08-24T21:15:18.567Z,87.41
2022-08-24T21:17:45.376Z,87.43
2022-08-24T21:20:13.653Z,88.47
2022-08-24T21:22:40.548Z,88.86
2022-08-24T21:25:09.309Z,89.19
2022-08-24T21:27:38.367Z,89.96
2022-08-24T21:30:06.725Z,90.79
2022-08-24T21:32:51.958Z,91.47
2022-08-24T21:35:18.570Z,92.47
2022-08-24T21:37:47.563Z,92.91
2022-08-24T21:40:14.388Z,92.43
2022-08-24T21:42:40.914Z,92.17
2022-08-24T21:45:07.896Z,92.49
2022-08-24T21:47:34.454Z,92.50
2022-08-24T21:50:00.952Z,93.11
2022-08-24T21:52:27.493Z,93.16
2022-08-24T21:54:56.274Z,93.60
2022-08-24T21:57:22.981Z,93.89
2022-08-24T21:59:49.973Z,94.28
2022-08-24T22:02:16.968Z,94.43
2022-08-24T22:04:47.574Z,94.25
2022-08-24T22:07:23.851Z,94.54
2022-08-24T22:09:50.380Z,94.22
2022-08-24T22:12:16.900Z,95.12
2022-08-24T22:14:43.484Z,95.49
2022-08-24T22:17:10.018Z,95.81
2022-08-24T22:19:36.534Z,96.28
2022-08-24T22:22:03.108Z,97.38
2022-08-24T22:24:29.665Z,97.32
2022-08-24T22:26:56.247Z,97.63
2022-08-24T22:29:22.744Z,97.87
2022-08-24T22:31:49.332Z,98.32
2022-08-24T22:34:21.714Z,98.20
2022-08-24T22:36:48.740Z,98.82
2022-08-24T22:39:15.983Z,99.67
2022-08-24T22:41:43.859Z,100.00
2022-08-24T22:44:19.847Z,100.00
2022-08-24T22:46:57.927Z,100.00
2022-08-24T22:49:30.327Z,100.00
2022-08-24T22:51:56.828Z,100.00
2022-08-24T22:54:23.765Z,100.00
2022-08-24T22:56:52.517Z,100.00
2022-08-24T22:59:22.127Z,100.00
2022-08-24T23:01:51.051Z,100.00
2022-08-24T23:04:21.215Z,100.00
2022-08-24T23:06:47.881Z,100.00
2022-08-24T23:09:15.219Z,100.00
2022-08-24T23:11:42.065Z,100.00
2022-08-24T23:14:10.144Z,100.00
2022-08-24T23:16:38.793Z,100.00
2022-08-24T23:19:25.857Z,100.00
2022-08-24T23:21:53.820Z,100.00
2022-08-24T23:24:20.412Z,100.00
2022-08-24T23:26:46.925Z,100.00
2022-08-24T23:29:14.153Z,100.00
2022-08-24T23:31:41.615Z,100.00
2022-08-24T23:34:08.236Z,100.00
2022-08-24T23:36:36.420Z,100.00
2022-08-24T23:39:04.251Z,100.00
2022-08-24T23:41:33.156Z,100.00
2022-08-24T23:44:01.963Z,100.00
2022-08-24T23:46:28.775Z,100.00
2022-08-24T23:48:56.733Z,100.00
2022-08-24T23:51:25.428Z,100.00
2022-08-24T23:53:53.288Z,100.00
2022-08-24T23:56:22.548Z,100.00
2022-08-24T23:58:49.986Z,100.00
